Time;durP1;ratioP1;P1;durP2;ratioP2;P2;SDS_P1;SDS_P2;PMS_P1;PMS_P2;Temp;Humidity;BMP_temperature;BMP_pressure;BME280_temperature;BME280_humidity;BME280_pressure;Samples;Min_cycle;Max_cycle;Signal;HPM_P1;HPM_P2
2021/07/22 00:00:58;;;;;;;23.48;14.55;;;;;;;;;;5032483;28;20071;-62
2021/07/22 00:03:24;;;;;;;24.42;14.35;;;;;;;;;;5032256;28;20484;-59
2021/07/22 00:05:50;;;;;;;21.92;12.82;;;;;;;;;;5014372;28;20027;-59
2021/07/22 00:08:16;;;;;;;29.13;14.82;;;;;;;;;;5014776;28;20030;-63
2021/07/22 00:10:42;;;;;;;23.02;13.88;;;;;;;;;;5014659;28;20018;-59
2021/07/22 00:13:08;;;;;;;24.42;14.45;;;;;;;;;;5014605;28;20025;-59
2021/07/22 00:15:35;;;;;;;24.08;14.48;;;;;;;;;;5032088;28;20402;-61
2021/07/22 00:18:03;;;;;;;25.08;14.05;;;;;;;;;;5032007;28;20021;-61
2021/07/22 00:20:29;;;;;;;23.40;13.65;;;;;;;;;;5032146;28;20043;-61
2021/07/22 00:22:55;;;;;;;23.00;13.40;;;;;;;;;;5014174;28;20553;-63
2021/07/22 00:25:21;;;;;;;23.83;13.52;;;;;;;;;;5014258;28;20029;-59
2021/07/22 00:27:47;;;;;;;24.45;13.48;;;;;;;;;;5032220;28;20097;-60
2021/07/22 00:30:14;;;;;;;25.60;13.05;;;;;;;;;;5014531;28;20034;-60
2021/07/22 00:32:39;;;;;;;26.85;14.45;;;;;;;;;;5032015;28;20056;-61
2021/07/22 00:35:06;;;;;;;23.50;13.43;;;;;;;;;;5032061;28;20061;-61
2021/07/22 00:37:32;;;;;;;24.45;13.38;;;;;;;;;;5031910;28;20040;-61
2021/07/22 00:39:58;;;;;;;25.00;14.35;;;;;;;;;;5014120;28;20021;-60
2021/07/22 00:42:24;;;;;;;25.40;14.52;;;;;;;;;;5031974;28;20029;-61
2021/07/22 00:44:50;;;;;;;24.73;13.45;;;;;;;;;;5031911;28;20029;-60
2021/07/22 00:47:16;;;;;;;23.52;13.82;;;;;;;;;;5014016;28;20018;-60
2021/07/22 00:49:42;;;;;;;24.25;13.73;;;;;;;;;;5014256;28;20477;-59
2021/07/22 00:52:11;;;;;;;27.90;14.27;;;;;;;;;;5014200;28;20022;-60
2021/07/22 00:54:37;;;;;;;30.23;14.05;;;;;;;;;;5017356;28;20049;-59
2021/07/22 00:57:03;;;;;;;25.00;14.38;;;;;;;;;;5035363;28;20500;-62
2021/07/22 00:59:29;;;;;;;24.63;13.82;;;;;;;;;;5035601;28;20106;-61
2021/07/22 01:01:55;;;;;;;26.83;15.38;;;;;;;;;;5035565;28;20118;-58
2021/07/22 01:04:21;;;;;;;37.17;16.23;;;;;;;;;;5017798;28;20026;-59
2021/07/22 01:06:47;;;;;;;26.13;15.65;;;;;;;;;;5035245;28;20123;-60
2021/07/22 01:09:13;;;;;;;27.65;16.08;;;;;;;;;;5035594;28;20101;-60
2021/07/22 01:11:39;;;;;;;26.20;16.08;;;;;;;;;;5017626;28;20132;-61
2021/07/22 01:14:05;;;;;;;25.70;16.58;;;;;;;;;;5017634;28;20061;-60
2021/07/22 01:16:31;;;;;;;26.60;16.10;;;;;;;;;;5017739;28;20481;-60
2021/07/22 01:18:57;;;;;;;26.50;15.32;;;;;;;;;;5017553;28;20022;-60
2021/07/22 01:21:24;;;;;;;25.33;15.10;;;;;;;;;;5017220;28;20136;-60
2021/07/22 01:23:52;;;;;;;26.90;16.15;;;;;;;;;;5035267;28;20018;-61
2021/07/22 01:26:18;;;;;;;26.80;15.07;;;;;;;;;;5017189;28;20025;-58
2021/07/22 01:28:47;;;;;;;26.23;15.52;;;;;;;;;;5035073;28;20025;-57
2021/07/22 01:31:13;;;;;;;26.38;15.50;;;;;;;;;;5017253;28;20414;-62
2021/07/22 01:33:38;;;;;;;26.70;16.30;;;;;;;;;;5017426;28;20032;-59
2021/07/22 01:36:05;;;;;;;26.00;15.90;;;;;;;;;;5017213;28;20022;-59
2021/07/22 01:38:31;;;;;;;26.95;15.20;;;;;;;;;;5034941;28;20026;-62
2021/07/22 01:40:56;;;;;;;29.20;16.88;;;;;;;;;;5034866;28;20032;-61
2021/07/22 01:43:22;;;;;;;28.15;15.55;;;;;;;;;;5034611;28;20036;-61
2021/07/22 01:45:49;;;;;;;27.65;17.27;;;;;;;;;;5034442;28;20076;-62
2021/07/22 01:48:15;;;;;;;29.35;17.30;;;;;;;;;;5016934;28;20025;-59
2021/07/22 01:50:41;;;;;;;27.33;16.30;;;;;;;;;;5034606;28;20032;-61
2021/07/22 01:53:09;;;;;;;30.05;16.73;;;;;;;;;;5034527;28;20025;-61
2021/07/22 01:55:35;;;;;;;25.88;14.68;;;;;;;;;;5016596;28;20026;-60
2021/07/22 01:58:01;;;;;;;26.40;17.05;;;;;;;;;;5016944;28;20440;-60
2021/07/22 02:00:27;;;;;;;26.15;16.52;;;;;;;;;;5034354;28;20030;-61
2021/07/22 02:02:53;;;;;;;28.17;16.55;;;;;;;;;;5016465;28;20160;-59
2021/07/22 02:05:19;;;;;;;27.27;15.70;;;;;;;;;;5033093;28;20064;-62
2021/07/22 02:07:45;;;;;;;26.73;16.05;;;;;;;;;;5016597;28;20025;-61
2021/07/22 02:10:11;;;;;;;31.15;17.55;;;;;;;;;;5033989;28;20497;-59
2021/07/22 02:12:37;;;;;;;27.23;15.32;;;;;;;;;;5016441;28;20403;-62
2021/07/22 02:15:04;;;;;;;24.80;14.63;;;;;;;;;;5034172;28;20033;-59
2021/07/22 02:17:29;;;;;;;25.48;16.80;;;;;;;;;;5016155;28;20025;-59
2021/07/22 02:19:55;;;;;;;26.52;14.75;;;;;;;;;;5016086;28;20515;-61
2021/07/22 02:22:21;;;;;;;27.48;16.45;;;;;;;;;;5033903;28;20398;-59
2021/07/22 02:24:47;;;;;;;26.55;15.68;;;;;;;;;;5033949;28;20022;-61
2021/07/22 02:27:13;;;;;;;29.48;16.80;;;;;;;;;;5034299;28;20017;-59
2021/07/22 02:29:39;;;;;;;27.77;17.20;;;;;;;;;;5033920;28;20374;-58
2021/07/22 02:32:06;;;;;;;25.75;15.75;;;;;;;;;;5105106;22;20091;-59
2021/07/22 02:34:32;;;;;;;25.45;15.85;;;;;;;;;;5091421;28;20365;-62
2021/07/22 02:36:58;;;;;;;25.45;15.50;;;;;;;;;;5092343;28;20148;-64
2021/07/22 02:39:24;;;;;;;25.77;14.68;;;;;;;;;;5092656;28;20028;-60
2021/07/22 02:41:50;;;;;;;26.52;16.17;;;;;;;;;;5092447;28;20498;-62
2021/07/22 02:44:16;;;;;;;27.35;15.55;;;;;;;;;;5092538;28;20020;-62
2021/07/22 02:46:42;;;;;;;25.83;15.95;;;;;;;;;;5090832;28;20371;-61
2021/07/22 02:49:08;;;;;;;27.10;15.77;;;;;;;;;;5092193;28;20028;-60
2021/07/22 02:51:34;;;;;;;29.08;16.77;;;;;;;;;;5092245;28;20024;-61
2021/07/22 02:54:00;;;;;;;26.08;16.20;;;;;;;;;;5090912;28;20024;-61
2021/07/22 02:56:26;;;;;;;32.38;16.83;;;;;;;;;;5091907;28;20063;-62
2021/07/22 02:58:52;;;;;;;26.38;15.70;;;;;;;;;;5090839;28;20035;-62
2021/07/22 03:01:18;;;;;;;26.98;15.18;;;;;;;;;;5091902;28;20032;-61
2021/07/22 03:03:44;;;;;;;26.60;14.48;;;;;;;;;;5091987;28;20028;-62
2021/07/22 03:06:16;;;;;;;26.08;15.23;;;;;;;;;;5091651;28;20451;-62
2021/07/22 03:08:42;;;;;;;26.05;15.25;;;;;;;;;;5090468;28;20048;-62
2021/07/22 03:11:09;;;;;;;26.13;15.07;;;;;;;;;;5091684;28;20039;-62
2021/07/22 03:13:35;;;;;;;27.48;16.05;;;;;;;;;;5091870;28;20031;-62
2021/07/22 03:16:01;;;;;;;27.00;15.65;;;;;;;;;;5090236;28;20032;-61
2021/07/22 03:18:27;;;;;;;25.48;15.02;;;;;;;;;;5091714;28;20039;-62
2021/07/22 03:20:53;;;;;;;27.20;16.80;;;;;;;;;;5091669;28;20066;-62
2021/07/22 03:23:19;;;;;;;23.48;14.57;;;;;;;;;;5091677;28;20384;-62
2021/07/22 03:25:47;;;;;;;27.60;15.38;;;;;;;;;;5091477;28;20034;-62
2021/07/22 03:28:13;;;;;;;26.65;15.13;;;;;;;;;;5091850;28;20028;-62
2021/07/22 03:30:40;;;;;;;30.17;15.50;;;;;;;;;;5090787;28;20051;-63
2021/07/22 03:33:06;;;;;;;26.40;17.23;;;;;;;;;;5090828;28;20067;-63
2021/07/22 03:35:32;;;;;;;27.65;16.70;;;;;;;;;;5089399;28;20127;-63
2021/07/22 03:38:02;;;;;;;28.85;16.40;;;;;;;;;;5089379;28;20059;-63
2021/07/22 03:40:28;;;;;;;26.30;15.48;;;;;;;;;;5089461;28;20026;-63
2021/07/22 03:42:54;;;;;;;26.40;16.38;;;;;;;;;;5090485;28;20028;-62
2021/07/22 03:45:20;;;;;;;25.77;15.57;;;;;;;;;;5089788;28;20027;-62
2021/07/22 03:47:46;;;;;;;27.23;16.77;;;;;;;;;;5089418;28;20028;-62
2021/07/22 03:50:12;;;;;;;25.02;15.25;;;;;;;;;;5090354;28;20081;-63
2021/07/22 03:52:38;;;;;;;28.73;16.98;;;;;;;;;;5090493;28;20478;-62
2021/07/22 03:55:04;;;;;;;27.50;15.68;;;;;;;;;;5090540;28;20032;-63
2021/07/22 03:57:30;;;;;;;30.55;17.38;;;;;;;;;;5089006;28;20024;-62
2021/07/22 03:59:56;;;;;;;27.17;17.17;;;;;;;;;;5090428;28;20111;-64
2021/07/22 04:02:22;;;;;;;28.05;16.30;;;;;;;;;;5089161;28;20020;-60
2021/07/22 04:04:48;;;;;;;29.88;17.30;;;;;;;;;;5089041;28;20062;-63
2021/07/22 04:07:14;;;;;;;29.15;17.52;;;;;;;;;;5088677;28;20499;-62
2021/07/22 04:09:40;;;;;;;28.48;17.20;;;;;;;;;;5090116;28;20064;-62
2021/07/22 04:12:07;;;;;;;26.45;16.98;;;;;;;;;;5090335;28;20020;-63
2021/07/22 04:14:33;;;;;;;33.03;17.10;;;;;;;;;;5088849;28;20032;-62
2021/07/22 04:16:59;;;;;;;30.48;17.00;;;;;;;;;;5089676;28;20024;-63
2021/07/22 04:19:25;;;;;;;27.90;17.55;;;;;;;;;;5088883;28;20024;-61
2021/07/22 04:21:51;;;;;;;31.05;17.08;;;;;;;;;;5088807;28;20024;-60
2021/07/22 04:24:17;;;;;;;27.42;17.02;;;;;;;;;;5090126;28;20016;-63
2021/07/22 04:26:43;;;;;;;26.23;16.27;;;;;;;;;;5089959;28;20032;-66
2021/07/22 04:29:09;;;;;;;30.48;18.30;;;;;;;;;;5090918;28;20149;-60
2021/07/22 04:31:35;;;;;;;28.17;17.05;;;;;;;;;;5047058;28;1350811;-60
2021/07/22 04:34:01;;;;;;;28.67;17.30;;;;;;;;;;5093831;28;20054;-62
2021/07/22 04:36:27;;;;;;;30.30;17.10;;;;;;;;;;5093439;28;20059;-62
2021/07/22 04:38:53;;;;;;;31.48;18.70;;;;;;;;;;5094769;28;20024;-61
2021/07/22 04:41:19;;;;;;;27.25;17.77;;;;;;;;;;5094761;28;20067;-62
2021/07/22 04:43:46;;;;;;;33.80;18.15;;;;;;;;;;5093747;28;20533;-61
2021/07/22 04:46:12;;;;;;;30.75;18.67;;;;;;;;;;5094499;28;20487;-63
2021/07/22 04:48:38;;;;;;;30.15;18.80;;;;;;;;;;5094803;28;20031;-63
2021/07/22 04:51:05;;;;;;;32.80;19.05;;;;;;;;;;5094578;28;20372;-61
2021/07/22 04:53:31;;;;;;;29.42;19.60;;;;;;;;;;5093704;28;20387;-63
2021/07/22 04:55:57;;;;;;;29.05;18.90;;;;;;;;;;5094863;28;20092;-61
2021/07/22 04:58:23;;;;;;;30.02;19.55;;;;;;;;;;5094398;28;20508;-61
2021/07/22 05:00:49;;;;;;;38.55;26.90;;;;;;;;;;5094209;28;20106;-63
2021/07/22 05:03:15;;;;;;;30.17;19.50;;;;;;;;;;5094244;28;20032;-63
2021/07/22 05:05:41;;;;;;;28.20;19.33;;;;;;;;;;5092827;28;20024;-63
2021/07/22 05:08:07;;;;;;;30.70;19.58;;;;;;;;;;5094565;28;20020;-63
2021/07/22 05:10:33;;;;;;;29.05;18.98;;;;;;;;;;5094069;28;20028;-63
2021/07/22 05:13:00;;;;;;;29.80;18.98;;;;;;;;;;5092815;28;20369;-63
2021/07/22 05:15:26;;;;;;;31.35;20.23;;;;;;;;;;5093782;28;20392;-62
2021/07/22 05:17:52;;;;;;;39.95;24.25;;;;;;;;;;5093773;28;20385;-63
2021/07/22 05:20:18;;;;;;;33.05;19.27;;;;;;;;;;5092461;28;20032;-63
2021/07/22 05:22:44;;;;;;;30.40;19.73;;;;;;;;;;5093719;28;20050;-63
2021/07/22 05:25:10;;;;;;;36.90;19.13;;;;;;;;;;5093494;28;20436;-63
2021/07/22 05:27:36;;;;;;;29.35;20.30;;;;;;;;;;5092458;28;20028;-63
2021/07/22 05:30:03;;;;;;;29.55;19.25;;;;;;;;;;5092544;28;20020;-63
2021/07/22 05:32:28;;;;;;;31.40;18.38;;;;;;;;;;5093839;28;20068;-61
2021/07/22 05:34:54;;;;;;;30.83;19.42;;;;;;;;;;5092821;28;20031;-58
2021/07/22 05:37:20;;;;;;;30.48;20.40;;;;;;;;;;5093594;28;20039;-61
2021/07/22 05:39:46;;;;;;;33.53;19.98;;;;;;;;;;5092317;28;20032;-61
2021/07/22 05:42:12;;;;;;;29.38;19.58;;;;;;;;;;5093693;28;20078;-60
2021/07/22 05:44:38;;;;;;;35.10;20.83;;;;;;;;;;5088429;28;20016;-63
2021/07/22 05:47:05;;;;;;;29.38;20.02;;;;;;;;;;5093040;28;20024;-64
2021/07/22 05:49:31;;;;;;;33.03;21.30;;;;;;;;;;5093720;28;20020;-64
2021/07/22 05:51:57;;;;;;;34.25;21.15;;;;;;;;;;5085851;28;20031;-64
2021/07/22 05:54:23;;;;;;;31.85;21.27;;;;;;;;;;5073175;28;20111;-64
2021/07/22 05:56:49;;;;;;;32.78;20.10;;;;;;;;;;5073286;28;20499;-63
2021/07/22 05:59:15;;;;;;;29.55;19.77;;;;;;;;;;5072128;28;20476;-63
2021/07/22 06:01:41;;;;;;;30.42;20.02;;;;;;;;;;5087697;28;20057;-62
2021/07/22 06:04:07;;;;;;;31.70;20.65;;;;;;;;;;5093565;28;20031;-63
2021/07/22 06:06:37;;;;;;;31.98;20.70;;;;;;;;;;5093486;28;20103;-63
2021/07/22 06:09:03;;;;;;;31.33;20.42;;;;;;;;;;5093137;28;20509;-63
2021/07/22 06:11:29;;;;;;;30.27;20.83;;;;;;;;;;5092000;28;20064;-64
2021/07/22 06:13:55;;;;;;;30.83;20.27;;;;;;;;;;5093551;28;20047;-63
2021/07/22 06:16:21;;;;;;;33.42;20.85;;;;;;;;;;5093050;28;20415;-64
2021/07/22 06:18:47;;;;;;;32.78;20.90;;;;;;;;;;5075477;28;20108;-62
2021/07/22 06:21:17;;;;;;;33.40;20.83;;;;;;;;;;5071266;28;20116;-61
2021/07/22 06:23:43;;;;;;;31.13;21.13;;;;;;;;;;5070792;28;20027;-61
2021/07/22 06:26:09;;;;;;;31.08;20.48;;;;;;;;;;5072643;28;20093;-61
2021/07/22 06:28:35;;;;;;;33.20;20.80;;;;;;;;;;5072416;28;20036;-62
2021/07/22 06:31:01;;;;;;;33.55;21.17;;;;;;;;;;5072501;28;20403;-63
2021/07/22 06:33:27;;;;;;;32.20;21.35;;;;;;;;;;5072555;28;20366;-63
2021/07/22 06:35:53;;;;;;;31.65;21.40;;;;;;;;;;5072499;28;20396;-63
2021/07/22 06:38:20;;;;;;;30.10;19.52;;;;;;;;;;5071061;28;20032;-60
2021/07/22 06:40:46;;;;;;;28.65;19.52;;;;;;;;;;5072056;28;20021;-62
2021/07/22 06:43:12;;;;;;;31.42;21.17;;;;;;;;;;5072088;28;20434;-62
2021/07/22 06:45:39;;;;;;;29.42;19.25;;;;;;;;;;5071714;28;20028;-63
2021/07/22 06:48:05;;;;;;;32.97;20.13;;;;;;;;;;5072059;28;20030;-63
2021/07/22 06:50:32;;;;;;;33.63;22.25;;;;;;;;;;5071595;28;20111;-64
2021/07/22 06:52:58;;;;;;;31.25;19.77;;;;;;;;;;5070510;28;20543;-60
2021/07/22 06:55:24;;;;;;;32.63;21.48;;;;;;;;;;5071570;28;20040;-60
2021/07/22 06:57:50;;;;;;;38.35;21.65;;;;;;;;;;5071557;28;20039;-60
2021/07/22 07:00:16;;;;;;;31.00;21.40;;;;;;;;;;5071605;28;20029;-60
2021/07/22 07:02:42;;;;;;;32.78;20.33;;;;;;;;;;5070133;28;20024;-59
2021/07/22 07:05:09;;;;;;;38.20;26.65;;;;;;;;;;5071327;28;20039;-57
2021/07/22 07:07:35;;;;;;;38.60;23.30;;;;;;;;;;5071898;28;20392;-62
2021/07/22 07:10:01;;;;;;;36.95;22.27;;;;;;;;;;5071322;28;20103;-60
2021/07/22 07:12:27;;;;;;;41.42;23.45;;;;;;;;;;5071212;28;20036;-59
2021/07/22 07:14:53;;;;;;;37.53;21.50;;;;;;;;;;5071331;28;20692;-60
2021/07/22 07:17:19;;;;;;;32.97;21.45;;;;;;;;;;5069906;28;20028;-58
2021/07/22 07:19:45;;;;;;;36.15;23.33;;;;;;;;;;5086936;28;20020;-61
2021/07/22 07:22:11;;;;;;;31.48;22.08;;;;;;;;;;5090140;28;20119;-60
2021/07/22 07:24:37;;;;;;;32.10;22.45;;;;;;;;;;5091671;28;20403;-61
2021/07/22 07:27:06;;;;;;;37.47;23.60;;;;;;;;;;5091486;28;20024;-60
2021/07/22 07:29:32;;;;;;;36.30;21.30;;;;;;;;;;5091298;28;20077;-61
2021/07/22 07:31:59;;;;;;;32.10;21.58;;;;;;;;;;5090391;28;20127;-60
2021/07/22 07:34:25;;;;;;;38.10;28.10;;;;;;;;;;5090137;28;20064;-60
2021/07/22 07:36:51;;;;;;;29.33;20.27;;;;;;;;;;5091178;28;20020;-61
2021/07/22 07:39:17;;;;;;;30.52;20.85;;;;;;;;;;5091383;28;20020;-55
2021/07/22 07:41:43;;;;;;;31.83;19.90;;;;;;;;;;5089592;28;20118;-60
2021/07/22 07:44:09;;;;;;;28.35;19.48;;;;;;;;;;5089840;28;20024;-59
2021/07/22 07:46:35;;;;;;;32.33;20.88;;;;;;;;;;5071376;28;20040;-60
2021/07/22 07:49:02;;;;;;;65.40;24.90;;;;;;;;;;5071012;28;20027;-59
2021/07/22 07:51:28;;;;;;;29.67;19.88;;;;;;;;;;5070703;28;20032;-61
2021/07/22 07:53:54;;;;;;;29.02;19.42;;;;;;;;;;5070761;28;20051;-59
2021/07/22 07:56:20;;;;;;;30.92;20.77;;;;;;;;;;5070483;28;20027;-59
2021/07/22 07:58:46;;;;;;;31.15;21.05;;;;;;;;;;5070647;28;20433;-59
2021/07/22 08:01:12;;;;;;;29.27;19.77;;;;;;;;;;5070714;28;20035;-61
2021/07/22 08:03:38;;;;;;;31.63;20.95;;;;;;;;;;5070247;28;20024;-60
2021/07/22 08:06:04;;;;;;;34.60;23.73;;;;;;;;;;5070278;28;20025;-60
2021/07/22 08:08:31;;;;;;;38.72;21.83;;;;;;;;;;5070353;28;20495;-61
2021/07/22 08:10:58;;;;;;;32.35;22.60;;;;;;;;;;5070654;28;20031;-59
2021/07/22 08:13:25;;;;;;;31.70;22.67;;;;;;;;;;5070715;28;20379;-61
2021/07/22 08:15:51;;;;;;;33.75;22.95;;;;;;;;;;5070085;28;20020;-62
2021/07/22 08:18:17;;;;;;;32.90;22.17;;;;;;;;;;5070459;28;20021;-60
2021/07/22 08:20:43;;;;;;;34.63;21.90;;;;;;;;;;5068903;28;20047;-62
2021/07/22 08:23:09;;;;;;;31.05;22.17;;;;;;;;;;5070610;28;20028;-59
2021/07/22 08:25:36;;;;;;;30.13;20.90;;;;;;;;;;5070307;28;20056;-60
2021/07/22 08:28:03;;;;;;;28.52;21.48;;;;;;;;;;5070389;28;20025;-61
2021/07/22 08:33:05;;;;;;;29.83;20.10;;;;;;;;;;5069515;28;20202;-65
2021/07/22 08:35:31;;;;;;;32.38;20.90;;;;;;;;;;5052720;28;20438;-65
2021/07/22 08:37:57;;;;;;;31.95;22.05;;;;;;;;;;5052952;28;20017;-66
2021/07/22 08:40:25;;;;;;;33.13;22.48;;;;;;;;;;5071312;28;20475;-61
2021/07/22 08:42:51;;;;;;;34.47;20.83;;;;;;;;;;5070885;28;20064;-63
2021/07/22 08:45:18;;;;;;;30.88;21.83;;;;;;;;;;5069194;28;20047;-62
2021/07/22 08:47:44;;;;;;;32.95;22.55;;;;;;;;;;5052901;28;20052;-64
2021/07/22 08:50:12;;;;;;;30.95;21.80;;;;;;;;;;5070638;28;20032;-64
2021/07/22 08:52:38;;;;;;;30.55;22.40;;;;;;;;;;5070698;28;20489;-64
2021/07/22 08:55:05;;;;;;;32.40;22.40;;;;;;;;;;5071075;28;20033;-64
2021/07/22 08:57:33;;;;;;;34.80;22.95;;;;;;;;;;5070839;28;20078;-64
2021/07/22 08:59:59;;;;;;;33.33;22.73;;;;;;;;;;5070934;28;20029;-62
2021/07/22 09:02:29;;;;;;;31.85;23.35;;;;;;;;;;5070736;28;20056;-64
2021/07/22 09:05:00;;;;;;;29.80;20.95;;;;;;;;;;5070989;28;20021;-63
2021/07/22 09:07:26;;;;;;;30.50;22.25;;;;;;;;;;5052536;28;20496;-64
2021/07/22 09:10:05;;;;;;;33.10;23.08;;;;;;;;;;5070574;28;20112;-62
2021/07/22 09:12:43;;;;;;;31.65;22.48;;;;;;;;;;5070680;28;20092;-63
2021/07/22 09:15:10;;;;;;;35.28;24.15;;;;;;;;;;5072894;28;20052;-62
2021/07/22 09:17:37;;;;;;;31.17;22.67;;;;;;;;;;5056555;28;20082;-63
2021/07/22 09:20:03;;;;;;;29.52;22.38;;;;;;;;;;5056342;28;20052;-63
2021/07/22 09:22:34;;;;;;;30.10;21.83;;;;;;;;;;5074122;28;20495;-63
2021/07/22 09:25:00;;;;;;;31.85;23.17;;;;;;;;;;5074067;28;20048;-63
2021/07/22 09:27:33;;;;;;;31.13;23.23;;;;;;;;;;5073924;28;20025;-63
2021/07/22 09:30:00;;;;;;;32.65;23.80;;;;;;;;;;5074267;28;20240;-64
2021/07/22 09:32:30;;;;;;;29.73;23.88;;;;;;;;;;5055878;28;20063;-64
2021/07/22 09:35:11;;;;;;;31.85;22.75;;;;;;;;;;5073832;28;20389;-64
2021/07/22 09:37:44;;;;;;;31.17;22.95;;;;;;;;;;5073829;28;20024;-64
2021/07/22 09:40:11;;;;;;;29.83;23.13;;;;;;;;;;5073672;28;20028;-65
2021/07/22 09:42:56;;;;;;;30.95;23.00;;;;;;;;;;5073710;28;20029;-65
2021/07/22 09:45:23;;;;;;;32.38;23.80;;;;;;;;;;5055466;28;20020;-65
2021/07/22 09:47:50;;;;;;;32.50;22.90;;;;;;;;;;5055916;28;20024;-65
2021/07/22 09:50:18;;;;;;;30.88;23.00;;;;;;;;;;5055802;28;20486;-65
2021/07/22 09:52:44;;;;;;;31.67;22.83;;;;;;;;;;5055742;28;20032;-65
2021/07/22 09:55:43;;;;;;;32.15;23.58;;;;;;;;;;5073646;28;20024;-64
2021/07/22 09:58:10;;;;;;;30.70;22.95;;;;;;;;;;5051002;28;20046;-64
2021/07/22 10:00:40;;;;;;;30.75;23.77;;;;;;;;;;5055422;28;20031;-64
2021/07/22 10:03:07;;;;;;;31.75;25.67;;;;;;;;;;5074082;28;20028;-65
2021/07/22 10:05:35;;;;;;;30.45;24.30;;;;;;;;;;5055110;28;20480;-64
2021/07/22 10:08:01;;;;;;;29.48;23.35;;;;;;;;;;5073348;28;20020;-64
2021/07/22 10:10:28;;;;;;;29.80;23.35;;;;;;;;;;5073209;28;20025;-64
2021/07/22 10:12:56;;;;;;;34.10;23.63;;;;;;;;;;5073242;28;20025;-64
2021/07/22 10:15:23;;;;;;;30.13;23.15;;;;;;;;;;5073210;28;20064;-64
2021/07/22 10:17:51;;;;;;;32.55;25.00;;;;;;;;;;5073440;28;20055;-64
2021/07/22 10:20:18;;;;;;;30.58;24.65;;;;;;;;;;5073619;28;20127;-64
2021/07/22 10:22:44;;;;;;;28.75;24.17;;;;;;;;;;5073071;28;20068;-64
2021/07/22 10:25:14;;;;;;;29.92;21.85;;;;;;;;;;5072694;28;20021;-64
2021/07/22 10:27:42;;;;;;;29.60;22.33;;;;;;;;;;5072377;28;20028;-64
2021/07/22 10:30:09;;;;;;;31.20;24.52;;;;;;;;;;5073008;28;20023;-64
2021/07/22 10:32:35;;;;;;;33.20;24.30;;;;;;;;;;5054730;28;20082;-63
2021/07/22 10:35:02;;;;;;;31.50;22.27;;;;;;;;;;5072645;28;20381;-63
2021/07/22 10:37:28;;;;;;;31.52;23.27;;;;;;;;;;5072617;28;20052;-62
2021/07/22 10:40:05;;;;;;;32.15;23.70;;;;;;;;;;5072967;28;20059;-65
2021/07/22 10:42:46;;;;;;;30.25;24.05;;;;;;;;;;5072408;28;20024;-65
2021/07/22 10:45:21;;;;;;;31.77;24.10;;;;;;;;;;5072194;28;20439;-63
2021/07/22 10:47:59;;;;;;;30.02;22.95;;;;;;;;;;5072465;28;20074;-63
2021/07/22 10:50:25;;;;;;;;;;;;;;;;;;5055013;28;20024;-63
2021/07/22 10:53:00;;;;;;;28.42;20.85;;;;;;;;;;5072637;28;20007;-63
2021/07/22 10:55:42;;;;;;;36.10;21.75;;;;;;;;;;5054385;28;20078;-63
2021/07/22 10:58:23;;;;;;;29.88;22.05;;;;;;;;;;5054407;28;20025;-64
2021/07/22 11:00:49;;;;;;;30.52;22.88;;;;;;;;;;5054073;28;20024;-64
2021/07/22 11:03:37;;;;;;;31.30;23.45;;;;;;;;;;5054078;28;20055;-64
2021/07/22 11:06:06;;;;;;;29.30;22.15;;;;;;;;;;5053573;28;20020;-64
2021/07/22 11:08:33;;;;;;;28.20;21.40;;;;;;;;;;5072825;28;20443;-64
2021/07/22 11:11:03;;;;;;;31.17;22.13;;;;;;;;;;5053571;28;20020;-64
2021/07/22 11:13:35;;;;;;;28.08;21.77;;;;;;;;;;5054254;28;20020;-64
2021/07/22 11:16:05;;;;;;;27.95;20.92;;;;;;;;;;5071552;28;20435;-64
2021/07/22 11:18:43;;;;;;;29.83;21.20;;;;;;;;;;5071783;28;20025;-64
2021/07/22 11:21:10;;;;;;;30.38;21.98;;;;;;;;;;5053277;28;20106;-64
2021/07/22 11:23:36;;;;;;;29.23;21.80;;;;;;;;;;5072000;28;20052;-64
2021/07/22 11:26:04;;;;;;;27.75;21.10;;;;;;;;;;5053797;28;20356;-64
2021/07/22 11:28:30;;;;;;;29.65;22.27;;;;;;;;;;5071895;28;20440;-64
2021/07/22 11:31:02;;;;;;;28.20;21.35;;;;;;;;;;5071073;28;20016;-64
2021/07/22 11:33:38;;;;;;;27.75;21.88;;;;;;;;;;5071726;28;20523;-64
2021/07/22 11:36:05;;;;;;;32.58;22.48;;;;;;;;;;5070870;28;20054;-64
2021/07/22 11:38:32;;;;;;;30.02;22.08;;;;;;;;;;5071254;28;20094;-64
2021/07/22 11:40:58;;;;;;;27.02;20.95;;;;;;;;;;5071398;28;20078;-64
2021/07/22 11:43:36;;;;;;;27.35;21.55;;;;;;;;;;5071604;28;20021;-64
2021/07/22 11:46:03;;;;;;;27.17;21.63;;;;;;;;;;5071072;28;20020;-64
2021/07/22 11:48:29;;;;;;;28.20;21.38;;;;;;;;;;5071326;28;20415;-64
2021/07/22 11:51:15;;;;;;;25.52;20.20;;;;;;;;;;5053680;28;20034;-63
2021/07/22 11:53:42;;;;;;;30.00;22.10;;;;;;;;;;5071689;28;20028;-64
2021/07/22 11:56:15;;;;;;;25.00;21.98;;;;;;;;;;5053411;28;20024;-64
2021/07/22 11:58:45;;;;;;;27.08;22.38;;;;;;;;;;5070966;28;20025;-64
2021/07/22 12:01:11;;;;;;;24.70;21.98;;;30.60;82.80;;;;;;5071460;28;20035;-64
2021/07/22 12:03:37;;;;;;;26.63;21.35;;;33.50;99.90;;;;;;5071357;28;20024;-64
2021/07/22 12:06:03;;;;;;;25.52;21.35;;;;;;;;;;5053542;28;20078;-63
2021/07/22 12:08:29;;;;;;;26.20;21.85;;;;;;;;;;5071472;28;20052;-63
2021/07/22 12:11:00;;;;;;;25.75;21.77;;;;;;;;;;5071321;28;20485;-63
2021/07/22 12:13:26;;;;;;;25.40;20.52;;;;;;;;;;5053265;28;20561;-63
2021/07/22 12:15:52;;;;;;;24.92;20.05;;;;;;;;;;5071406;28;20059;-63
2021/07/22 12:18:21;;;;;;;23.77;19.58;;;;;;;;;;5053579;28;20602;-63
2021/07/22 12:20:47;;;;;;;24.33;20.20;;;;;;;;;;5053215;28;20070;-65
2021/07/22 12:23:31;;;;;;;25.10;20.38;;;30.90;99.90;;;;;;5053494;28;20024;-63
2021/07/22 12:25:57;;;;;;;23.92;19.98;;;30.20;99.90;;;;;;5071246;28;20268;-63
2021/07/22 12:28:23;;;;;;;26.35;20.70;;;;;;;;;;5071497;28;20048;-63
2021/07/22 12:30:49;;;;;;;24.83;19.85;;;;;;;;;;5071224;28;20027;-63
2021/07/22 12:33:25;;;;;;;23.73;19.98;;;;;;;;;;5071494;28;20033;-63
2021/07/22 12:35:52;;;;;;;25.50;21.42;;;;;;;;;;5071017;28;20025;-63
2021/07/22 12:38:18;;;;;;;25.02;21.40;;;;;;;;;;5071182;28;20021;-64
2021/07/22 12:40:48;;;;;;;22.92;19.33;;;;;;;;;;5053335;28;20134;-64
2021/07/22 12:43:21;;;;;;;25.45;20.17;;;;;;;;;;5071313;28;20045;-64
2021/07/22 12:45:48;;;;;;;24.48;20.65;;;;;;;;;;5070765;28;20345;-63
2021/07/22 12:48:14;;;;;;;24.48;20.13;;;;;;;;;;5071528;28;20464;-65
2021/07/22 12:50:43;;;;;;;24.00;20.08;;;;;;;;;;5056432;28;20152;-62
2021/07/22 12:53:32;;;;;;;23.48;19.20;;;30.50;99.90;;;;;;5075252;28;20021;-63
2021/07/22 12:55:59;;;;;;;23.00;18.48;;;;;;;;;;5058365;28;20315;-63
2021/07/22 12:58:41;;;;;;;22.65;19.90;;;31.50;99.20;;;;;;5075125;28;20119;-63
2021/07/22 13:01:17;;;;;;;22.35;19.65;;;;;;;;;;5075028;28;20108;-64
2021/07/22 13:03:44;;;;;;;22.63;20.17;;;31.80;98.70;;;;;;5075308;28;20425;-63
2021/07/22 13:06:12;;;;;;;23.27;19.38;;;33.00;97.50;;;;;;5056530;28;20028;-64
2021/07/22 13:08:39;;;;;;;22.95;18.92;;;33.60;97.30;;;;;;5075386;28;20107;-62
2021/07/22 13:11:07;;;;;;;21.60;18.80;;;32.80;96.80;;;;;;5074739;28;20323;-64
2021/07/22 13:13:36;;;;;;;23.00;18.98;;;31.70;98.30;;;;;;5075991;28;20032;-64
2021/07/22 13:16:02;;;;;;;25.48;19.52;;;30.70;97.90;;;;;;5075185;28;20052;-64
2021/07/22 13:18:28;;;;;;;22.00;17.92;;;30.80;98.30;;;;;;5075463;28;20480;-64
2021/07/22 13:20:53;;;;;;;22.30;19.23;;;31.90;97.70;;;;;;5074407;28;20029;-64
2021/07/22 13:23:19;;;;;;;25.25;19.05;;;32.00;96.80;;;;;;5056113;28;20036;-64
2021/07/22 13:25:45;;;;;;;23.33;18.40;;;31.40;97.10;;;;;;5074364;28;20590;-65
2021/07/22 13:28:11;;;;;;;23.00;19.30;;;31.20;98.30;;;;;;5074438;28;20025;-64
2021/07/22 13:30:37;;;;;;;21.70;18.92;;;32.40;97.20;;;;;;5055928;28;20332;-64
2021/07/22 13:33:02;;;;;;;22.75;18.77;;;32.00;95.80;;;;;;5056308;28;20043;-64
2021/07/22 13:35:34;;;;;;;20.58;17.35;;;32.00;96.70;;;;;;5073819;28;20025;-64
2021/07/22 13:38:06;;;;;;;23.13;18.52;;;33.10;97.30;;;;;;5074111;28;20507;-64
2021/07/22 13:40:33;;;;;;;20.30;17.65;;;35.30;94.90;;;;;;5056049;28;20036;-62
2021/07/22 13:43:01;;;;;;;20.33;18.05;;;35.20;94.20;;;;;;5073919;28;20511;-62
2021/07/22 13:45:30;;;;;;;;;;;35.40;93.70;;;;;;5074200;28;20484;-62
2021/07/22 13:47:57;;;;;;;21.42;17.85;;;34.60;93.40;;;;;;5055818;28;19977;-63
2021/07/22 13:50:23;;;;;;;20.25;17.75;;;33.40;93.50;;;;;;5055599;28;20396;-63
2021/07/22 13:52:48;;;;;;;24.58;18.25;;;33.30;94.00;;;;;;5055692;28;20029;-62
2021/07/22 13:55:14;;;;;;;21.00;17.40;;;33.60;94.00;;;;;;5073679;28;20032;-63
2021/07/22 13:57:40;;;;;;;20.83;17.77;;;34.30;93.70;;;;;;5055985;28;20062;-62
2021/07/22 14:00:07;;;;;;;20.55;17.33;;;33.60;93.10;;;;;;5055179;28;20025;-62
2021/07/22 14:02:33;;;;;;;19.65;17.27;;;32.70;93.80;;;;;;5055008;28;20395;-63
2021/07/22 14:04:59;;;;;;;21.95;18.08;;;33.20;94.60;;;;;;5073283;28;20159;-63
2021/07/22 14:07:24;;;;;;;21.38;17.45;;;34.20;93.60;;;;;;5055751;28;20490;-65
2021/07/22 14:09:50;;;;;;;22.52;18.50;;;33.10;93.30;;;;;;5073628;28;20472;-63